createdAt,value
2023-01-21T00:01:54.657Z,99053.28
2023-01-21T00:04:23.388Z,99054.13
2023-01-21T00:06:52.207Z,99060.84
2023-01-21T00:09:20.897Z,99059.22
2023-01-21T00:11:49.702Z,99056.72
2023-01-21T00:14:18.606Z,99061.69
2023-01-21T00:16:48.788Z,99062.56
2023-01-21T00:19:17.491Z,99069.28
2023-01-21T00:21:46.809Z,99069.28
2023-01-21T00:24:15.593Z,99072.63
2023-01-21T00:26:45.020Z,99072.63
2023-01-21T00:29:13.928Z,99066.75
2023-01-21T00:31:42.686Z,99072.53
2023-01-21T00:34:13.520Z,99071.69
2023-01-21T00:36:42.326Z,99067.50
2023-01-21T00:39:11.046Z,99060.84
2023-01-21T00:41:39.943Z,99041.00
2023-01-21T00:44:08.734Z,99075.94
2023-01-21T00:46:37.573Z,99069.22
2023-01-21T00:49:06.397Z,99080.16
2023-01-21T00:51:36.646Z,99081.03
2023-01-21T00:54:05.530Z,99081.03
2023-01-21T00:56:34.643Z,99074.38
2023-01-21T00:59:03.335Z,99074.31
2023-01-21T01:01:38.805Z,99076.88
2023-01-21T01:04:07.828Z,99079.31
2023-01-21T01:06:37.990Z,99088.63
2023-01-21T01:09:06.851Z,99086.94
2023-01-21T01:11:35.642Z,99082.81
2023-01-21T01:14:04.423Z,99076.09
2023-01-21T01:16:33.869Z,99086.16
2023-01-21T01:19:02.317Z,99083.56
2023-01-21T01:21:31.106Z,99085.28
2023-01-21T01:24:03.388Z,99086.16
2023-01-21T01:26:32.127Z,99088.66
2023-01-21T01:29:00.978Z,99090.41
2023-01-21T01:31:29.938Z,99090.41
2023-01-21T01:33:59.432Z,99084.44
2023-01-21T01:36:28.092Z,99088.63
2023-01-21T01:38:56.806Z,99082.66
2023-01-21T01:41:30.334Z,99090.25
2023-01-21T01:44:02.839Z,99087.78
2023-01-21T01:46:33.805Z,99086.16
2023-01-21T01:49:09.206Z,99087.78
2023-01-21T01:51:47.651Z,99083.56
2023-01-21T01:54:21.556Z,99080.28
2023-01-21T01:56:55.076Z,99080.31
2023-01-21T01:59:24.933Z,99077.84
2023-01-21T02:01:54.146Z,99074.47
2023-01-21T02:04:31.376Z,99044.69
2023-01-21T02:07:01.721Z,99071.22
2023-01-21T02:09:30.411Z,99067.91
2023-01-21T02:12:02.807Z,99069.53
2023-01-21T02:14:34.707Z,99069.56
2023-01-21T02:17:21.637Z,99062.09
2023-01-21T02:20:23.683Z,99061.25
2023-01-21T02:23:04.389Z,99059.47
2023-01-21T02:25:54.130Z,99060.47
2023-01-21T02:28:56.849Z,99058.75
2023-01-21T02:31:54.806Z,99052.91
2023-01-21T02:34:33.669Z,99057.09
2023-01-21T02:37:11.307Z,99057.09
2023-01-21T02:40:05.078Z,99054.50
2023-01-21T02:42:43.599Z,99057.94
2023-01-21T02:45:23.651Z,99049.44
2023-01-21T02:48:06.593Z,99051.19
2023-01-21T02:50:40.157Z,99006.88
2023-01-21T02:53:09.240Z,99047.88
2023-01-21T02:55:41.963Z,99048.69
2023-01-21T02:58:17.288Z,99039.44
2023-01-21T03:01:10.331Z,99018.03
2023-01-21T03:03:56.530Z,99046.16
2023-01-21T03:06:49.461Z,99045.41
2023-01-21T03:09:24.872Z,99041.22
2023-01-21T03:12:19.286Z,99047.88
2023-01-21T03:15:04.881Z,99041.06
2023-01-21T03:17:41.912Z,99047.03
2023-01-21T03:20:14.681Z,99042.00
2023-01-21T03:22:46.891Z,99020.03
2023-01-21T03:25:19.530Z,99038.72
2023-01-21T03:27:51.368Z,99032.84
2023-01-21T03:30:24.116Z,99043.69
2023-01-21T03:32:55.958Z,99038.63
2023-01-21T03:35:30.413Z,99036.13
2023-01-21T03:38:07.008Z,99046.16
2023-01-21T03:40:41.427Z,99041.16
2023-01-21T03:43:11.054Z,99037.84
2023-01-21T03:45:46.969Z,99034.47
2023-01-21T03:48:23.805Z,99044.53
2023-01-21T03:50:58.303Z,99023.38
2023-01-21T03:53:28.978Z,99036.97
2023-01-21T03:55:59.637Z,99038.63
2023-01-21T03:58:28.822Z,99038.63
2023-01-21T04:00:57.914Z,99041.94
2023-01-21T04:03:26.666Z,99037.75
2023-01-21T04:05:55.437Z,99037.84
2023-01-21T04:08:24.264Z,99041.16
2023-01-21T04:10:54.396Z,99038.63
2023-01-21T04:13:23.149Z,99032.72
2023-01-21T04:15:51.872Z,99034.34
2023-01-21T04:18:20.731Z,99038.53
2023-01-21T04:20:49.417Z,99033.50
2023-01-21T04:23:18.158Z,99042.78
2023-01-21T04:25:49.408Z,99040.19
2023-01-21T04:28:20.282Z,99044.34
2023-01-21T04:30:49.594Z,99049.34
2023-01-21T04:33:18.758Z,99040.09
2023-01-21T04:35:47.490Z,99045.94
2023-01-21T04:38:16.385Z,99051.81
2023-01-21T04:40:45.370Z,99057.63
2023-01-21T04:43:14.153Z,99055.91
2023-01-21T04:45:44.248Z,99055.13
2023-01-21T04:48:13.065Z,99060.94
2023-01-21T04:50:41.886Z,99059.31
2023-01-21T04:53:10.700Z,99071.06
2023-01-21T04:55:39.563Z,99076.09
2023-01-21T04:58:08.346Z,99081.13
2023-01-21T05:00:37.149Z,99083.66
2023-01-21T05:03:07.524Z,99092.88
2023-01-21T05:05:36.527Z,99082.75
2023-01-21T05:08:05.406Z,99096.25
2023-01-21T05:10:34.126Z,99104.72
2023-01-21T05:13:02.842Z,99106.41
2023-01-21T05:15:33.453Z,99108.06
2023-01-21T05:18:02.263Z,99096.22
2023-01-21T05:20:32.411Z,99121.50
2023-01-21T05:23:01.073Z,99117.28
2023-01-21T05:25:29.797Z,99120.78
2023-01-21T05:27:58.695Z,99122.47
2023-01-21T05:30:27.435Z,99124.09
2023-01-21T05:32:57.585Z,99107.06
2023-01-21T05:35:26.427Z,99131.63
2023-01-21T05:37:58.842Z,99135.88
2023-01-21T05:40:29.116Z,99148.44
2023-01-21T05:42:57.853Z,99141.69
2023-01-21T05:45:26.659Z,99146.72
2023-01-21T05:47:55.278Z,99130.63
2023-01-21T05:50:24.526Z,99155.16
2023-01-21T05:52:53.252Z,99159.38
2023-01-21T05:55:23.485Z,99158.50
2023-01-21T05:57:52.562Z,99166.09
2023-01-21T06:00:22.024Z,99162.69
2023-01-21T06:02:50.538Z,99156.78
2023-01-21T06:05:19.342Z,99173.47
2023-01-21T06:07:48.116Z,99165.09
2023-01-21T06:10:18.000Z,99170.13
2023-01-21T06:12:50.994Z,99176.88
2023-01-21T06:15:20.104Z,99176.09
2023-01-21T06:17:48.790Z,99179.38
2023-01-21T06:20:18.511Z,99195.38
2023-01-21T06:22:47.328Z,99187.81
2023-01-21T06:25:16.300Z,99197.09
2023-01-21T06:27:45.086Z,99199.59
2023-01-21T06:30:15.939Z,99200.47
2023-01-21T06:32:44.761Z,99213.84
2023-01-21T06:35:13.493Z,99215.56
2023-01-21T06:37:42.361Z,99226.47
2023-01-21T06:40:12.489Z,99205.31
2023-01-21T06:42:41.460Z,99229.97
2023-01-21T06:45:11.000Z,99222.47
2023-01-21T06:47:42.837Z,99244.25
2023-01-21T06:50:13.971Z,99254.31
2023-01-21T06:52:44.649Z,99246.78
2023-01-21T06:55:14.220Z,99256.94
2023-01-21T06:57:44.511Z,99260.31
2023-01-21T07:00:15.862Z,99269.50
2023-01-21T07:02:46.390Z,99264.56
2023-01-21T07:05:16.211Z,99259.53
2023-01-21T07:07:45.640Z,99266.34
2023-01-21T07:10:14.481Z,99254.59
2023-01-21T07:12:43.369Z,99252.97
2023-01-21T07:16:29.975Z,99256.41
2023-01-21T10:24:22.654Z,99372.78
2023-01-21T10:26:54.775Z,99370.47
2023-01-21T10:29:27.893Z,99381.63
2023-01-21T10:32:03.053Z,99379.31
2023-01-21T10:34:33.379Z,99374.44
2023-01-21T10:37:13.433Z,99364.53
2023-01-21T10:39:55.727Z,99364.53
2023-01-21T10:42:42.075Z,99363.84
2023-01-21T10:45:24.658Z,99373.34
2023-01-21T10:48:02.048Z,99370.00
2023-01-21T10:50:46.710Z,99378.56
2023-01-21T10:53:23.930Z,99379.38
2023-01-21T10:56:08.096Z,99373.38
2023-01-21T10:58:42.934Z,99382.69
2023-01-21T11:01:21.186Z,99375.03
2023-01-21T11:03:51.651Z,99378.25
2023-01-21T11:06:23.040Z,99381.63
2023-01-21T11:08:56.924Z,99391.63
2023-01-21T11:11:31.225Z,99392.50
2023-01-21T11:14:00.552Z,99386.53
2023-01-21T11:16:37.395Z,99385.69
2023-01-21T11:19:08.814Z,99389.88
2023-01-21T11:21:40.227Z,99386.47
2023-01-21T11:24:22.601Z,99384.75
2023-01-21T11:26:55.690Z,99384.69
2023-01-21T11:29:26.605Z,99385.50
2023-01-21T11:32:04.563Z,99379.66
2023-01-21T11:34:35.327Z,99386.38
2023-01-21T11:37:06.572Z,99398.13
2023-01-21T11:39:38.496Z,99396.56
2023-01-21T11:42:15.259Z,99384.75
2023-01-21T11:44:54.342Z,99388.09
2023-01-21T11:47:38.373Z,99383.06
2023-01-21T11:50:18.962Z,99381.41
2023-01-21T11:52:48.444Z,99382.47
2023-01-21T11:55:23.147Z,99381.69
2023-01-21T11:57:55.132Z,99388.41
2023-01-21T12:00:27.270Z,99376.50
2023-01-21T12:03:01.321Z,99390.06
2023-01-21T12:05:34.864Z,99384.03
2023-01-21T12:08:06.355Z,99395.88
2023-01-21T12:10:40.934Z,99395.91
2023-01-21T12:13:24.560Z,99390.94
2023-01-21T12:16:22.218Z,99394.22
2023-01-21T12:19:21.185Z,99400.06
2023-01-21T12:22:11.214Z,99395.00
2023-01-21T12:24:58.528Z,99388.31
2023-01-21T12:27:41.520Z,99385.78
2023-01-21T12:30:22.202Z,99388.31
2023-01-21T12:32:56.983Z,99393.38
2023-01-21T12:35:32.062Z,99390.84
2023-01-21T12:38:06.073Z,99385.78
2023-01-21T12:40:40.851Z,99394.06
2023-01-21T12:43:17.874Z,99388.22
2023-01-21T12:45:53.549Z,99389.78
2023-01-21T12:48:30.752Z,99384.75
2023-01-21T12:51:04.795Z,99392.44
2023-01-21T12:53:41.943Z,99393.16
2023-01-21T12:56:22.705Z,99398.19
2023-01-21T12:58:57.034Z,99396.38
2023-01-21T13:01:50.766Z,99397.16
2023-01-21T13:04:33.129Z,99403.94
2023-01-21T13:07:07.106Z,99420.00
2023-01-21T13:09:44.079Z,99419.84
2023-01-21T13:12:20.314Z,99423.19
2023-01-21T13:14:56.453Z,99423.22
2023-01-21T13:17:32.838Z,99428.06
2023-01-21T13:20:01.613Z,99429.72
2023-01-21T13:22:41.802Z,99433.13
2023-01-21T13:25:24.486Z,99432.22
2023-01-21T13:27:59.428Z,99444.06
2023-01-21T13:30:37.419Z,99443.28
2023-01-21T13:33:25.157Z,99444.97
2023-01-21T13:36:06.164Z,99456.91
2023-01-21T13:38:41.842Z,99456.84
2023-01-21T13:41:24.706Z,99462.75
2023-01-21T13:44:13.019Z,99471.09
2023-01-21T13:46:55.486Z,99467.63
2023-01-21T13:49:50.985Z,99468.50
2023-01-21T13:52:25.979Z,99476.84
2023-01-21T13:55:20.497Z,99473.44
2023-01-21T13:58:02.926Z,99475.84
2023-01-21T14:00:39.055Z,99488.44
2023-01-21T14:03:26.041Z,99484.09
2023-01-21T14:06:00.583Z,99484.09
2023-01-21T14:08:36.933Z,99488.44
2023-01-21T14:11:11.863Z,99501.84
2023-01-21T14:14:09.174Z,99496.66
2023-01-21T14:16:58.823Z,99506.66
2023-01-21T14:19:57.369Z,99509.09
2023-01-21T14:22:41.077Z,99508.28
2023-01-21T14:25:32.030Z,99516.72
2023-01-21T14:28:10.838Z,99504.81
2023-01-21T14:30:44.687Z,99512.47
2023-01-21T14:33:19.096Z,99516.63
2023-01-21T14:35:52.688Z,99513.97
2023-01-21T14:38:34.634Z,99521.66
2023-01-21T14:41:10.596Z,99519.91
2023-01-21T14:43:52.333Z,99529.88
2023-01-21T14:46:27.195Z,99533.22
2023-01-21T14:49:01.823Z,99530.69
2023-01-21T14:51:32.156Z,99535.69
2023-01-21T14:54:04.126Z,99541.59
2023-01-21T14:56:36.151Z,99540.66
2023-01-21T14:59:08.485Z,99548.16
2023-01-21T15:01:42.806Z,99533.78
2023-01-21T15:04:25.990Z,99539.72
2023-01-21T15:06:57.783Z,99547.22
2023-01-21T15:09:30.618Z,99541.34
2023-01-21T15:12:04.086Z,99546.28
2023-01-21T15:14:36.947Z,99551.31
2023-01-21T15:17:06.419Z,99547.91
2023-01-21T15:19:35.843Z,99548.72
2023-01-21T15:22:23.326Z,99552.00
2023-01-21T15:25:04.213Z,99551.25
2023-01-21T15:27:34.505Z,99546.97
2023-01-21T15:30:24.125Z,99551.09
2023-01-21T15:32:54.224Z,99549.47
2023-01-21T15:35:26.733Z,99549.34
2023-01-21T15:38:04.133Z,99554.41
2023-01-21T15:40:40.905Z,99553.47
2023-01-21T15:43:21.884Z,99564.38
2023-01-21T15:45:56.911Z,99559.22
2023-01-21T15:48:48.536Z,99562.59
2023-01-21T15:51:31.213Z,99569.16
2023-01-21T15:54:16.808Z,99573.34
2023-01-21T15:56:58.418Z,99577.69
2023-01-21T15:59:55.905Z,99577.59
2023-01-21T16:02:27.771Z,99589.31
2023-01-21T16:05:10.155Z,99589.31
2023-01-21T16:07:52.851Z,99595.97
2023-01-21T16:10:33.004Z,99601.75
2023-01-21T16:13:12.136Z,99607.56
2023-01-21T16:15:55.653Z,99620.16
2023-01-21T16:18:33.457Z,99629.44
2023-01-21T16:21:04.364Z,99632.59
2023-01-21T16:23:38.227Z,99629.06
2023-01-21T16:26:07.263Z,99634.09
2023-01-21T16:28:43.692Z,99631.56
2023-01-21T16:31:14.169Z,99634.00
2023-01-21T16:33:44.191Z,99641.34
2023-01-21T16:36:14.584Z,99652.34
2023-01-21T16:38:45.976Z,99662.28
2023-01-21T16:41:25.380Z,99660.69
2023-01-21T16:43:57.079Z,99654.75
2023-01-21T16:46:32.851Z,99653.91
2023-01-21T16:49:05.055Z,99652.22
2023-01-21T16:51:36.501Z,99659.75
2023-01-21T16:54:21.762Z,99665.59
2023-01-21T16:56:51.944Z,99669.88
2023-01-21T16:59:20.985Z,99664.00
2023-01-21T17:01:51.591Z,99655.66
2023-01-21T17:04:20.484Z,99654.72
2023-01-21T17:06:49.341Z,99677.41
2023-01-21T17:09:27.782Z,99679.09
2023-01-21T17:11:58.134Z,99685.09
2023-01-21T17:14:30.885Z,99680.81
2023-01-21T17:17:03.714Z,99692.69
2023-01-21T17:19:36.896Z,99693.41
2023-01-21T17:22:14.960Z,99697.66
2023-01-21T17:24:57.238Z,99705.13
2023-01-21T17:27:26.584Z,99709.31
2023-01-21T17:29:55.356Z,99711.88
2023-01-21T17:32:28.399Z,99717.78
2023-01-21T17:35:12.701Z,99703.47
2023-01-21T17:37:44.382Z,99704.25
2023-01-21T17:40:34.923Z,99710.25
2023-01-21T17:43:19.534Z,99714.34
2023-01-21T17:45:50.325Z,99721.09
2023-01-21T17:48:28.109Z,99711.78
2023-01-21T17:51:04.604Z,99721.09
2023-01-21T17:53:33.856Z,99716.06
2023-01-21T17:56:05.497Z,99715.31
2023-01-21T17:58:47.211Z,99719.59
2023-01-21T18:01:16.469Z,99721.31
2023-01-21T18:03:46.897Z,99717.03
2023-01-21T18:06:22.203Z,99718.72
2023-01-21T18:08:53.034Z,99726.34
2023-01-21T18:11:23.791Z,99719.59
2023-01-21T18:13:52.865Z,99728.78
2023-01-21T18:16:21.592Z,99738.22
2023-01-21T18:18:54.316Z,99733.97
2023-01-21T18:21:23.433Z,99733.19
2023-01-21T18:23:52.782Z,99683.75
2023-01-21T18:26:29.911Z,99720.59
2023-01-21T18:28:58.766Z,99734.81
2023-01-21T18:31:27.571Z,99738.13
2023-01-21T18:33:58.007Z,99731.38
2023-01-21T18:36:26.841Z,99740.53
2023-01-21T18:38:55.579Z,99743.03
2023-01-21T18:41:24.438Z,99746.31
2023-01-21T18:43:53.139Z,99757.09
2023-01-21T18:46:22.155Z,99759.56
2023-01-21T18:48:50.948Z,99763.00
2023-01-21T18:51:21.222Z,99767.91
2023-01-21T18:53:50.067Z,99758.69
2023-01-21T18:56:18.826Z,99774.75
2023-01-21T18:58:47.522Z,99771.34
2023-01-21T19:01:22.953Z,99778.81
2023-01-21T19:03:55.183Z,99771.25
2023-01-21T19:06:27.073Z,99769.53
2023-01-21T19:08:56.365Z,99774.56
2023-01-21T19:11:25.147Z,99776.28
2023-01-21T19:13:53.888Z,99774.69
2023-01-21T19:16:24.100Z,99778.09
2023-01-21T19:18:52.977Z,99779.72
2023-01-21T19:21:21.667Z,99781.22
2023-01-21T19:23:51.924Z,99784.53
2023-01-21T19:26:21.170Z,99783.84
2023-01-21T19:28:49.883Z,99782.09
2023-01-21T19:31:18.912Z,99776.81
2023-01-21T19:33:47.638Z,99787.88
2023-01-21T19:36:20.836Z,99795.47
2023-01-21T19:38:56.452Z,99801.34
2023-01-21T19:41:25.774Z,99802.06
2023-01-21T19:43:54.814Z,99808.00
2023-01-21T19:46:28.997Z,99799.63
2023-01-21T19:48:58.901Z,99802.97
2023-01-21T19:51:31.543Z,99804.78
2023-01-21T19:54:03.069Z,99803.91
2023-01-21T19:56:31.846Z,99806.38
2023-01-21T19:59:00.697Z,99816.56
2023-01-21T20:01:29.494Z,99819.00
2023-01-21T20:04:00.655Z,99829.19
2023-01-21T20:06:35.771Z,99831.75
2023-01-21T20:09:06.497Z,99817.22
2023-01-21T20:11:35.586Z,99838.41
2023-01-21T20:14:04.278Z,99830.06
2023-01-21T20:16:34.058Z,99839.22
2023-01-21T20:19:03.934Z,99835.97
2023-01-21T20:21:32.625Z,99830.81
2023-01-21T20:24:01.355Z,99829.84
2023-01-21T20:26:31.540Z,99837.34
2023-01-21T20:29:02.655Z,99839.91
2023-01-21T20:31:31.939Z,99816.22
2023-01-21T20:34:00.907Z,99826.63
2023-01-21T20:36:29.795Z,99829.94
2023-01-21T20:38:58.556Z,99840.00
2023-01-21T20:41:27.410Z,99833.25
2023-01-21T20:43:57.556Z,99831.69
2023-01-21T20:46:31.103Z,99834.19
2023-01-21T20:49:01.847Z,99834.97
2023-01-21T20:51:30.652Z,99830.81
2023-01-21T20:53:59.406Z,99831.44
2023-01-21T20:56:30.810Z,99838.25
2023-01-21T20:59:01.706Z,99840.72
2023-01-21T21:01:35.069Z,99845.84
2023-01-21T21:04:03.927Z,99841.75
2023-01-21T21:06:33.655Z,99850.09
2023-01-21T21:09:02.015Z,99845.00
2023-01-21T21:11:30.870Z,99853.41
2023-01-21T21:14:02.017Z,99848.34
2023-01-21T21:16:32.290Z,99850.88
2023-01-21T21:19:01.107Z,99852.50
2023-01-21T21:21:29.873Z,99851.63
2023-01-21T21:23:58.657Z,99859.97
2023-01-21T21:26:29.458Z,99859.97
2023-01-21T21:28:58.619Z,99863.31
2023-01-21T21:31:32.682Z,99868.28
2023-01-21T21:34:01.855Z,99866.69
2023-01-21T21:36:31.074Z,99866.69
2023-01-21T21:39:00.415Z,99863.25
2023-01-21T21:41:39.118Z,99865.03
2023-01-21T21:44:09.887Z,99870.09
2023-01-21T21:46:50.523Z,99842.88
2023-01-21T21:49:19.290Z,99871.88
2023-01-21T21:51:47.980Z,99870.22
2023-01-21T21:54:18.962Z,99873.53
2023-01-21T21:56:48.403Z,99859.97
2023-01-21T21:59:17.446Z,99873.53
2023-01-21T22:01:47.872Z,99873.53
2023-01-21T22:04:16.871Z,99877.00
2023-01-21T22:06:45.762Z,99877.00
2023-01-21T22:09:15.103Z,99879.44
2023-01-21T22:11:43.846Z,99878.56
2023-01-21T22:14:12.568Z,99879.31
2023-01-21T22:16:41.444Z,99881.03
2023-01-21T22:19:13.524Z,99871.72
2023-01-21T22:21:42.329Z,99881.91
2023-01-21T22:24:12.860Z,99888.56
2023-01-21T22:26:41.685Z,99886.81
2023-01-21T22:29:10.421Z,99880.88
2023-01-21T22:31:39.300Z,99876.63
2023-01-21T22:34:08.144Z,99886.69
2023-01-21T22:36:38.477Z,99879.22
2023-01-21T22:39:07.286Z,99880.84
2023-01-21T22:41:36.075Z,99879.97
2023-01-21T22:44:04.977Z,99882.50
2023-01-21T22:46:34.460Z,99873.09
2023-01-21T22:49:04.087Z,99878.94
2023-01-21T22:51:32.800Z,99876.44
2023-01-21T22:54:02.908Z,99870.50
2023-01-21T22:56:50.343Z,99876.31
2023-01-21T22:59:21.125Z,99874.69
2023-01-21T23:01:51.450Z,99877.22
2023-01-21T23:04:20.335Z,99878.81
2023-01-21T23:06:51.398Z,99878.13
2023-01-21T23:09:21.629Z,99874.81
2023-01-21T23:11:52.952Z,99862.28
2023-01-21T23:14:21.917Z,99865.78
2023-01-21T23:16:52.978Z,99863.22
2023-01-21T23:19:21.821Z,99854.69
2023-01-21T23:21:50.527Z,99847.19
2023-01-21T23:24:19.729Z,99827.28
2023-01-21T23:26:49.845Z,99855.59
2023-01-21T23:29:18.638Z,99853.94
2023-01-21T23:31:47.545Z,99855.59
2023-01-21T23:34:16.631Z,99859.09
2023-01-21T23:36:45.562Z,99863.47
2023-01-21T23:39:14.965Z,99853.41
2023-01-21T23:41:43.681Z,99854.25
2023-01-21T23:44:13.878Z,99857.59
2023-01-21T23:46:43.457Z,99861.75
2023-01-21T23:49:13.448Z,99873.53
2023-01-21T23:51:42.227Z,99871.84
2023-01-21T23:54:13.068Z,99869.31
2023-01-21T23:56:41.971Z,99867.53
2023-01-21T23:59:12.261Z,99874.06
